Time;durP1;ratioP1;P1;durP2;ratioP2;P2;SDS_P1;SDS_P2;PMS_P1;PMS_P2;Temp;Humidity;BMP_temperature;BMP_pressure;BME280_temperature;BME280_humidity;BME280_pressure;Samples;Min_cycle;Max_cycle;Signal;HPM_P1;HPM_P2
2021/04/16 00:01:30;;;;;;;3.80;2.20;;;;;;;;;;5085409;28;20849;-77
2021/04/16 00:03:56;;;;;;;3.85;2.65;;;;;;;;;;5094171;28;20195;-76
2021/04/16 00:06:22;;;;;;;3.45;2.53;;;;;;;;;;5106581;28;20275;-75
2021/04/16 00:08:48;;;;;;;3.80;2.50;;;;;;;;;;5088999;28;20258;-78
2021/04/16 00:11:19;;;;;;;4.28;2.90;;;;;;;;;;5088803;28;20425;-77
2021/04/16 00:13:45;;;;;;;4.43;2.67;;;;;;;;;;5100276;28;20286;-77
2021/04/16 00:16:12;;;;;;;3.00;2.40;;;;;;;;;;5088690;28;20203;-74
2021/04/16 00:18:38;;;;;;;5.60;3.00;;;;;;;;;;5088901;28;20424;-76
2021/04/16 00:21:05;;;;;;;2.90;2.23;;;;;;;;;;5092339;28;20247;-76
2021/04/16 00:23:31;;;;;;;2.90;2.60;;;;;;;;;;5098978;28;20411;-75
2021/04/16 00:25:57;;;;;;;4.82;2.83;;;;;;;;;;5094539;28;20622;-76
2021/04/16 00:28:23;;;;;;;5.38;2.47;;;;;;;;;;5088861;28;20220;-73
2021/04/16 00:30:57;;;;;;;4.00;2.70;;;;;;;;;;5095651;28;20179;-73
2021/04/16 00:33:24;;;;;;;2.85;2.50;;;;;;;;;;5077394;28;20385;-74
2021/04/16 00:35:50;;;;;;;3.92;2.55;;;;;;;;;;5109735;28;20257;-74
2021/04/16 00:38:16;;;;;;;3.72;2.70;;;;;;;;;;5096416;28;20211;-74
2021/04/16 00:40:50;;;;;;;4.80;2.70;;;;;;;;;;5095917;28;20195;-73
2021/04/16 00:43:18;;;;;;;3.40;2.58;;;;;;;;;;5094353;28;20213;-74
2021/04/16 00:45:44;;;;;;;2.55;2.13;;;;;;;;;;5098921;28;20170;-75
2021/04/16 00:48:21;;;;;;;4.55;2.50;;;;;;;;;;5115422;28;20691;-73
2021/04/16 00:50:49;;;;;;;3.35;2.42;;;;;;;;;;5116389;28;20206;-72
2021/04/16 00:53:16;;;;;;;3.53;2.30;;;;;;;;;;5116056;28;20527;-73
2021/04/16 00:55:43;;;;;;;3.05;2.22;;;;;;;;;;5114813;28;20185;-73
2021/04/16 00:58:09;;;;;;;2.90;2.50;;;;;;;;;;5104298;28;20218;-72
2021/04/16 01:00:37;;;;;;;2.88;2.40;;;;;;;;;;5094666;28;20289;-74
2021/04/16 01:03:03;;;;;;;3.17;2.78;;;;;;;;;;5095317;28;20175;-72
2021/04/16 01:05:29;;;;;;;3.60;2.33;;;;;;;;;;5113651;28;20191;-73
2021/04/16 01:07:55;;;;;;;5.65;2.50;;;;;;;;;;5095224;28;20565;-74
2021/04/16 01:10:21;;;;;;;4.33;2.10;;;;;;;;;;5098334;28;20181;-74
2021/04/16 01:12:47;;;;;;;3.03;2.20;;;;;;;;;;5115634;28;20387;-73
2021/04/16 01:15:29;;;;;;;3.40;2.33;;;;;;;;;;5096069;28;20198;-73
2021/04/16 01:17:57;;;;;;;2.88;2.30;;;;;;;;;;5094984;28;20230;-74
2021/04/16 01:20:27;;;;;;;2.92;2.15;;;;;;;;;;5094983;28;20191;-74
2021/04/16 01:22:53;;;;;;;3.53;2.63;;;;;;;;;;5096477;28;20248;-74
2021/04/16 01:25:20;;;;;;;3.30;2.50;;;;;;;;;;5115959;28;20262;-74
2021/04/16 01:27:46;;;;;;;5.95;2.30;;;;;;;;;;5108573;28;20400;-74
2021/04/16 01:30:18;;;;;;;4.00;2.70;;;;;;;;;;5114385;28;20231;-73
2021/04/16 01:32:44;;;;;;;2.90;2.40;;;;;;;;;;5099163;28;20280;-73
2021/04/16 01:35:16;;;;;;;3.67;2.30;;;;;;;;;;5110635;28;20235;-73
2021/04/16 01:37:42;;;;;;;4.45;2.63;;;;;;;;;;5110912;28;20195;-73
2021/04/16 01:40:09;;;;;;;4.07;2.63;;;;;;;;;;5102316;28;20214;-74
2021/04/16 01:42:35;;;;;;;5.63;2.63;;;;;;;;;;5093553;28;20207;-73
2021/04/16 01:45:01;;;;;;;3.87;2.57;;;;;;;;;;5094256;28;20203;-73
2021/04/16 01:47:27;;;;;;;2.55;2.22;;;;;;;;;;5093279;28;20498;-73
2021/04/16 01:49:54;;;;;;;4.55;2.85;;;;;;;;;;5104895;28;20585;-74
2021/04/16 01:52:27;;;;;;;4.55;2.80;;;;;;;;;;5104725;28;20561;-73
2021/04/16 01:54:53;;;;;;;3.60;2.60;;;;;;;;;;5093247;28;20187;-73
2021/04/16 01:57:21;;;;;;;4.05;2.55;;;;;;;;;;5096073;28;20202;-73
2021/04/16 01:59:47;;;;;;;4.25;2.75;;;;;;;;;;5094018;28;20208;-74
2021/04/16 02:02:16;;;;;;;4.50;2.60;;;;;;;;;;5097285;28;20171;-73
2021/04/16 02:04:42;;;;;;;2.85;2.50;;;;;;;;;;5114617;28;20201;-72
2021/04/16 02:07:08;;;;;;;3.85;2.67;;;;;;;;;;5103124;28;20205;-73
2021/04/16 02:09:35;;;;;;;3.90;2.80;;;;;;;;;;5094662;28;20175;-74
2021/04/16 02:12:02;;;;;;;5.22;3.20;;;;;;;;;;5094146;28;20183;-73
2021/04/16 02:14:29;;;;;;;3.67;2.85;;;;;;;;;;5105809;28;20178;-73
2021/04/16 02:16:59;;;;;;;4.70;3.05;;;;;;;;;;5093771;28;20266;-73
2021/04/16 02:19:25;;;;;;;4.38;2.67;;;;;;;;;;5107328;28;20532;-73
2021/04/16 02:21:51;;;;;;;3.42;3.00;;;;;;;;;;5114494;28;20174;-73
2021/04/16 02:24:17;;;;;;;4.57;2.40;;;;;;;;;;5096740;28;20241;-73
2021/04/16 02:26:44;;;;;;;3.25;2.80;;;;;;;;;;5092618;28;20195;-73
2021/04/16 02:29:11;;;;;;;3.55;2.72;;;;;;;;;;5093198;28;20198;-73
2021/04/16 02:31:42;;;;;;;3.55;2.67;;;;;;;;;;5103952;28;20677;-72
2021/04/16 02:34:08;;;;;;;3.75;2.70;;;;;;;;;;5093455;28;20262;-75
2021/04/16 02:36:34;;;;;;;3.92;2.75;;;;;;;;;;5106999;28;20199;-74
2021/04/16 02:39:00;;;;;;;4.20;2.80;;;;;;;;;;5094510;28;20187;-73
2021/04/16 02:41:26;;;;;;;4.22;2.78;;;;;;;;;;5093653;28;20530;-72
2021/04/16 02:43:52;;;;;;;4.75;2.90;;;;;;;;;;5093232;28;20292;-73
2021/04/16 02:46:18;;;;;;;4.50;2.53;;;;;;;;;;5093742;28;20296;-73
2021/04/16 02:48:44;;;;;;;3.40;2.75;;;;;;;;;;5093021;28;20432;-73
2021/04/16 02:51:10;;;;;;;3.00;2.53;;;;;;;;;;5113147;28;20186;-73
2021/04/16 02:53:36;;;;;;;4.60;3.20;;;;;;;;;;5101959;28;20517;-73
2021/04/16 02:56:02;;;;;;;5.10;2.90;;;;;;;;;;5080261;28;20404;-73
2021/04/16 02:58:29;;;;;;;3.72;2.53;;;;;;;;;;5092563;28;20423;-73
2021/04/16 03:00:56;;;;;;;4.55;2.55;;;;;;;;;;5093236;28;20210;-73
2021/04/16 03:03:21;;;;;;;3.53;2.60;;;;;;;;;;5094804;28;20179;-73
2021/04/16 03:05:48;;;;;;;4.23;2.87;;;;;;;;;;5093404;28;20644;-73
2021/04/16 03:08:13;;;;;;;4.78;2.80;;;;;;;;;;5099963;28;20398;-74
2021/04/16 03:10:39;;;;;;;4.60;2.40;;;;;;;;;;5093837;28;20175;-74
2021/04/16 03:13:06;;;;;;;8.65;3.05;;;;;;;;;;5097345;28;20759;-73
2021/04/16 03:15:34;;;;;;;2.50;2.17;;;;;;;;;;5113764;28;20187;-74
2021/04/16 03:18:00;;;;;;;2.85;2.50;;;;;;;;;;5096152;28;20210;-74
2021/04/16 03:20:26;;;;;;;3.88;2.67;;;;;;;;;;5113695;28;20563;-73
2021/04/16 03:22:53;;;;;;;2.80;2.47;;;;;;;;;;5092537;28;20174;-73
2021/04/16 03:25:19;;;;;;;3.35;2.60;;;;;;;;;;5101566;28;20445;-73
2021/04/16 03:27:45;;;;;;;3.15;2.20;;;;;;;;;;5098112;28;20656;-73
2021/04/16 03:30:13;;;;;;;3.67;2.60;;;;;;;;;;5101359;28;20182;-74
2021/04/16 03:32:39;;;;;;;3.53;3.05;;;;;;;;;;5093406;28;20758;-74
2021/04/16 03:35:06;;;;;;;4.05;2.50;;;;;;;;;;5092921;28;20210;-73
2021/04/16 03:37:32;;;;;;;4.03;2.85;;;;;;;;;;5092804;28;20207;-74
2021/04/16 03:39:58;;;;;;;3.93;2.80;;;;;;;;;;5092514;28;20249;-74
2021/04/16 03:42:23;;;;;;;3.20;2.90;;;;;;;;;;5108233;28;20420;-74
2021/04/16 03:44:49;;;;;;;4.00;2.63;;;;;;;;;;5107464;28;20391;-74
2021/04/16 03:47:17;;;;;;;4.10;3.10;;;;;;;;;;5093000;28;20516;-74
2021/04/16 03:49:43;;;;;;;4.53;2.70;;;;;;;;;;5113582;28;20409;-74
2021/04/16 03:52:09;;;;;;;3.85;2.80;;;;;;;;;;5111648;28;20186;-74
2021/04/16 03:54:35;;;;;;;3.70;2.40;;;;;;;;;;5092488;28;20521;-74
2021/04/16 03:57:01;;;;;;;3.70;2.50;;;;;;;;;;5092983;28;20404;-74
2021/04/16 03:59:27;;;;;;;3.40;2.95;;;;;;;;;;5094733;28;20395;-75
2021/04/16 04:01:53;;;;;;;4.03;2.90;;;;;;;;;;5097878;28;20528;-74
2021/04/16 04:04:21;;;;;;;4.65;2.78;;;;;;;;;;5096093;28;20206;-74
2021/04/16 04:06:48;;;;;;;4.75;3.65;;;;;;;;;;5112567;28;20217;-74
2021/04/16 04:09:14;;;;;;;4.68;2.60;;;;;;;;;;5102703;27;20199;-74
2021/04/16 04:11:40;;;;;;;7.15;3.00;;;;;;;;;;5097042;28;20244;-74
2021/04/16 04:14:06;;;;;;;4.57;3.07;;;;;;;;;;5095927;28;20187;-74
2021/04/16 04:16:47;;;;;;;4.00;3.42;;;;;;;;;;5096451;28;20431;-73
2021/04/16 04:19:13;;;;;;;3.80;2.75;;;;;;;;;;5107834;28;20191;-75
2021/04/16 04:21:39;;;;;;;3.57;2.90;;;;;;;;;;5105007;28;20206;-74
2021/04/16 04:24:05;;;;;;;3.20;2.77;;;;;;;;;;5105490;28;20790;-74
2021/04/16 04:26:31;;;;;;;4.15;3.08;;;;;;;;;;5099682;28;20918;-73
2021/04/16 04:28:57;;;;;;;5.17;3.33;;;;;;;;;;5109263;28;20183;-74
2021/04/16 04:31:23;;;;;;;3.80;2.80;;;;;;;;;;5101509;28;20417;-73
2021/04/16 04:33:48;;;;;;;4.80;3.42;;;;;;;;;;5107351;28;20391;-73
2021/04/16 04:36:14;;;;;;;4.37;2.90;;;;;;;;;;5112360;27;20217;-72
2021/04/16 04:38:40;;;;;;;3.77;2.80;;;;;;;;;;5107370;28;20403;-73
2021/04/16 04:41:06;;;;;;;6.47;3.40;;;;;;;;;;5108091;28;20456;-74
2021/04/16 04:43:32;;;;;;;4.67;4.17;;;;;;;;;;5105250;28;20532;-74
2021/04/16 04:45:59;;;;;;;5.00;3.30;;;;;;;;;;5107500;28;20444;-74
2021/04/16 04:48:25;;;;;;;4.93;3.65;;;;;;;;;;5116670;28;20487;-74
2021/04/16 04:50:51;;;;;;;6.00;3.53;;;;;;;;;;5106180;28;20259;-74
2021/04/16 04:53:17;;;;;;;4.17;3.40;;;;;;;;;;5106887;28;20182;-72
2021/04/16 04:55:43;;;;;;;5.05;3.03;;;;;;;;;;5112843;28;20909;-73
2021/04/16 04:58:09;;;;;;;5.30;3.20;;;;;;;;;;5095621;28;20189;-73
2021/04/16 05:00:35;;;;;;;7.17;3.67;;;;;;;;;;5108259;28;20448;-74
2021/04/16 05:03:01;;;;;;;3.27;2.97;;;;;;;;;;5095442;28;20380;-74
2021/04/16 05:05:27;;;;;;;8.20;3.57;;;;;;;;;;5112657;28;20467;-76
2021/04/16 05:07:53;;;;;;;6.20;3.70;;;;;;;;;;5116143;27;20402;-73
2021/04/16 05:10:20;;;;;;;4.15;3.10;;;;;;;;;;5097340;28;20179;-73
2021/04/16 05:12:46;;;;;;;5.38;3.70;;;;;;;;;;5094162;28;20208;-74
2021/04/16 05:15:13;;;;;;;4.43;3.20;;;;;;;;;;5095177;28;20175;-74
2021/04/16 05:17:39;;;;;;;3.72;3.28;;;;;;;;;;5095292;28;20200;-73
2021/04/16 05:20:06;;;;;;;5.83;3.17;;;;;;;;;;5113930;28;20677;-74
2021/04/16 05:22:32;;;;;;;4.30;3.22;;;;;;;;;;5113335;28;20417;-74
2021/04/16 05:24:58;;;;;;;5.45;3.78;;;;;;;;;;5099909;28;20193;-74
2021/04/16 05:27:24;;;;;;;5.40;3.53;;;;;;;;;;5110979;28;20198;-74
2021/04/16 05:29:50;;;;;;;5.50;3.80;;;;;;;;;;5093004;28;20636;-74
2021/04/16 05:32:16;;;;;;;4.85;3.35;;;;;;;;;;5095164;28;20454;-74
2021/04/16 05:34:43;;;;;;;5.20;4.13;;;;;;;;;;5094368;28;20270;-74
2021/04/16 05:37:09;;;;;;;4.35;3.50;;;;;;;;;;5100037;28;20245;-74
2021/04/16 05:39:35;;;;;;;4.38;3.58;;;;;;;;;;5110734;28;20185;-74
2021/04/16 05:42:01;;;;;;;5.70;4.00;;;;;;;;;;5094361;28;20179;-74
2021/04/16 05:44:27;;;;;;;9.90;4.90;;;;;;;;;;5111841;28;20491;-75
2021/04/16 05:46:53;;;;;;;4.67;3.67;;;;;;;;;;5095716;28;20444;-72
2021/04/16 05:49:19;;;;;;;7.57;3.80;;;;;;;;;;5114018;28;20428;-73
2021/04/16 05:51:45;;;;;;;5.18;3.88;;;;;;;;;;5115182;28;20431;-75
2021/04/16 05:54:11;;;;;;;4.20;3.50;;;;;;;;;;5099295;28;20269;-74
2021/04/16 05:56:37;;;;;;;4.85;3.95;;;;;;;;;;5110537;27;20440;-73
2021/04/16 05:59:03;;;;;;;4.00;3.60;;;;;;;;;;5110033;28;20236;-73
2021/04/16 06:01:31;;;;;;;6.35;4.13;;;;;;;;;;5094219;28;20241;-74
2021/04/16 06:03:57;;;;;;;3.80;3.40;;;;;;;;;;5092388;28;20241;-74
2021/04/16 06:06:23;;;;;;;5.28;4.22;;;;;;;;;;5099497;28;20335;-74
2021/04/16 06:08:49;;;;;;;6.30;4.40;;;;;;;;;;5094161;28;20297;-73
2021/04/16 06:11:15;;;;;;;5.10;4.60;;;;;;;;;;5107122;28;20462;-74
2021/04/16 06:13:41;;;;;;;4.63;4.13;;;;;;;;;;5107196;27;20462;-74
2021/04/16 06:16:08;;;;;;;6.25;4.32;;;;;;;;;;5093354;28;20448;-74
2021/04/16 06:18:34;;;;;;;6.03;4.07;;;;;;;;;;5099431;28;20262;-74
2021/04/16 06:21:00;;;;;;;5.90;4.95;;;;;;;;;;5112189;28;20674;-74
2021/04/16 06:23:26;;;;;;;6.93;4.28;;;;;;;;;;5093514;28;20572;-73
2021/04/16 06:25:52;;;;;;;8.40;5.10;;;;;;;;;;5107024;28;20175;-73
2021/04/16 06:28:19;;;;;;;6.23;4.43;;;;;;;;;;5102090;27;20684;-74
2021/04/16 06:30:45;;;;;;;5.45;4.70;;;;;;;;;;5094154;28;20411;-75
2021/04/16 06:33:11;;;;;;;6.47;4.80;;;;;;;;;;5093777;28;20191;-73
2021/04/16 06:35:37;;;;;;;9.33;4.50;;;;;;;;;;5107019;28;20178;-74
2021/04/16 06:38:03;;;;;;;7.55;5.75;;;;;;;;;;5114404;28;20464;-75
2021/04/16 06:40:29;;;;;;;7.32;4.80;;;;;;;;;;5098606;28;20215;-73
2021/04/16 06:42:56;;;;;;;7.50;4.90;;;;;;;;;;5094351;28;20267;-73
2021/04/16 06:45:29;;;;;;;6.90;5.82;;;;;;;;;;5080593;28;20197;-73
2021/04/16 06:47:58;;;;;;;8.93;5.50;;;;;;;;;;5080218;28;20203;-74
2021/04/16 06:50:26;;;;;;;6.32;5.10;;;;;;;;;;5085485;28;20190;-73
2021/04/16 06:52:58;;;;;;;7.10;5.15;;;;;;;;;;5082484;28;20234;-74
2021/04/16 06:55:28;;;;;;;6.28;5.00;;;;;;;;;;5090590;28;20202;-74
2021/04/16 06:58:12;;;;;;;6.22;5.45;;;;;;;;;;5079684;28;20231;-73
2021/04/16 07:00:57;;;;;;;9.13;6.13;;;;;;;;;;5090486;28;20213;-75
2021/04/16 07:03:27;;;;;;;6.95;5.38;;;;;;;;;;5098266;28;20186;-74
2021/04/16 07:05:54;;;;;;;8.65;5.72;;;;;;;;;;5089500;28;20183;-74
2021/04/16 07:08:32;;;;;;;6.43;5.25;;;;;;;;;;5089218;28;20179;-74
2021/04/16 07:10:59;;;;;;;6.22;5.35;;;;;;;;;;5084445;28;20179;-74
2021/04/16 07:13:28;;;;;;;7.38;5.75;;;;;;;;;;5088748;28;20291;-74
2021/04/16 07:15:54;;;;;;;7.57;5.22;;;;;;;;;;5098302;28;20291;-74
2021/04/16 07:18:25;;;;;;;7.57;4.57;;;;;;;;;;5098534;28;20620;-74
2021/04/16 07:20:51;;;;;;;5.63;4.13;;;;;;;;;;5090608;28;20464;-73
2021/04/16 07:23:17;;;;;;;6.80;4.80;;;;;;;;;;5093191;28;20305;-74
2021/04/16 07:25:43;;;;;;;5.93;4.50;;;;;;;;;;5092543;28;20406;-74
2021/04/16 07:28:10;;;;;;;6.00;4.33;;;;;;;;;;5097418;28;20179;-73
2021/04/16 07:30:38;;;;;;;5.25;4.10;;;;;;;;;;5088714;28;21094;-73
2021/04/16 07:33:11;;;;;;;4.90;3.67;;;;;;;;;;5090170;28;20283;-73
2021/04/16 07:35:37;;;;;;;5.05;4.05;;;;;;;;;;5108198;28;20195;-73
2021/04/16 07:38:06;;;;;;;5.77;4.10;;;;;;;;;;5096029;28;20280;-74
2021/04/16 07:40:43;;;;;;;4.75;3.65;;;;;;;;;;5094086;28;20443;-74
2021/04/16 07:43:09;;;;;;;4.20;3.30;;;;;;;;;;5101511;28;20277;-74
2021/04/16 07:45:43;;;;;;;4.10;3.40;;;;;;;;;;5095239;28;20175;-73
2021/04/16 07:48:29;;;;;;;4.40;3.30;;;;;;;;;;5110420;28;20843;-73
2021/04/16 07:50:56;;;;;;;9.30;3.50;;;;;;;;;;5089505;28;20265;-74
2021/04/16 07:53:25;;;;;;;3.95;3.10;;;;;;;;;;5094653;28;20183;-73
2021/04/16 07:56:03;;;;;;;3.70;3.10;;;;;;;;;;5101768;28;20183;-74
2021/04/16 07:58:29;;;;;;;3.88;2.92;;;;;;;;;;5110566;27;20186;-74
2021/04/16 08:00:55;;;;;;;3.42;2.85;;;;;;;;;;5095486;28;20210;-74
2021/04/16 08:03:23;;;;;;;3.92;2.75;;;;;;;;;;5094973;28;20714;-72
2021/04/16 08:05:51;;;;;;;2.70;2.17;;;;;;;;;;5095425;28;20658;-74
2021/04/16 08:08:31;;;;;;;4.13;2.20;;;;;;;;;;5095336;28;20252;-74
2021/04/16 08:11:05;;;;;;;3.33;2.50;;;;;;;;;;5085561;28;20179;-74
2021/04/16 08:13:36;;;;;;;4.45;2.30;;;;;;;;;;5095789;28;20545;-74
2021/04/16 08:16:14;;;;;;;3.00;2.20;;;;;;;;;;5095430;28;20206;-74
2021/04/16 08:18:41;;;;;;;5.07;2.72;;;;;;;;;;5095171;28;20202;-74
2021/04/16 08:21:18;;;;;;;3.67;2.50;;;;;;;;;;5107498;28;20202;-74
2021/04/16 08:23:52;;;;;;;3.22;2.10;;;;;;;;;;5093491;28;20175;-73
2021/04/16 08:26:20;;;;;;;2.50;1.90;;;;;;;;;;5112420;28;20980;-73
2021/04/16 08:28:49;;;;;;;3.95;1.90;;;;;;;;;;5099286;27;20187;-73
2021/04/16 08:31:19;;;;;;;2.55;2.10;;;;;;;;;;5112769;28;20178;-74
2021/04/16 08:33:49;;;;;;;4.03;2.20;;;;;;;;;;5111766;27;20528;-73
2021/04/16 08:36:36;;;;;;;4.22;2.50;;;;;;;;;;5113860;28;20203;-73
2021/04/16 08:39:08;;;;;;;2.97;2.40;;;;;;;;;;5108200;27;20225;-73
2021/04/16 08:41:37;;;;;;;3.28;2.10;;;;;;;;;;5113978;27;20226;-72
2021/04/16 08:44:04;;;;;;;2.35;1.83;;;;;;;;;;5090564;28;20982;-72
2021/04/16 08:46:36;;;;;;;3.55;2.00;;;;;;;;;;5102302;28;20194;-73
2021/04/16 08:49:26;;;;;;;2.83;2.00;;;;;;;;;;5089037;28;20171;-73
2021/04/16 08:51:58;;;;;;;2.83;1.70;;;;;;;;;;5093727;28;20307;-73
2021/04/16 08:54:26;;;;;;;3.63;2.20;;;;;;;;;;5091654;28;20640;-74
2021/04/16 08:57:14;;;;;;;2.95;2.10;;;;;;;;;;5091339;28;20329;-74
2021/04/16 08:59:48;;;;;;;4.25;2.28;;;;;;;;;;5104837;28;20181;-72
2021/04/16 09:02:14;;;;;;;2.70;1.80;;;;;;;;;;5094875;28;20174;-74
2021/04/16 09:04:46;;;;;;;3.00;1.83;;;;;;;;;;5091200;28;20953;-74
2021/04/16 09:07:30;;;;;;;3.10;1.85;;;;;;;;;;5105514;28;20444;-75
2021/04/16 09:09:57;;;;;;;2.70;2.20;;;;;;;;;;5112090;28;20543;-74
2021/04/16 09:12:38;;;;;;;2.95;1.88;;;;;;;;;;5097899;28;20600;-74
2021/04/16 09:15:04;;;;;;;2.95;2.20;;;;;;;;;;5092624;28;20187;-73
2021/04/16 09:17:59;;;;;;;3.38;2.35;;;;;;;;;;5091204;28;20291;-73
2021/04/16 09:20:34;;;;;;;4.20;1.98;;;;;;;;;;5093842;28;20253;-74
2021/04/16 09:23:00;;;;;;;2.50;2.05;;;;;;;;;;5111481;27;20188;-73
2021/04/16 09:25:32;;;;;;;7.75;2.25;;;;;;;;;;5103235;28;20175;-73
2021/04/16 09:28:16;;;;;;;2.90;2.10;;;;;;;;;;5091134;28;20203;-73
2021/04/16 09:30:43;;;;;;;2.88;2.30;;;;;;;;;;5088367;28;20500;-74
2021/04/16 09:33:29;;;;;;;7.18;6.53;;;;;;;;;;5111421;27;20179;-73
2021/04/16 09:35:57;;;;;;;3.60;3.30;;;;;;;;;;5068785;28;20222;-73
2021/04/16 09:38:23;;;;;;;3.20;2.40;;;;;;;;;;5087803;28;20183;-73
2021/04/16 09:41:10;;;;;;;4.15;2.20;;;;;;;;;;5090819;28;20294;-73
2021/04/16 09:43:36;;;;;;;3.00;2.00;;;;;;;;;;5077205;28;20179;-74
2021/04/16 09:46:22;;;;;;;2.53;1.90;;;;;;;;;;5094220;28;20194;-74
2021/04/16 09:48:51;;;;;;;3.00;2.10;;;;;;;;;;5090547;28;20786;-74
2021/04/16 09:51:19;;;;;;;4.27;1.80;;;;;;;;;;5097104;28;20421;-74
2021/04/16 09:54:05;;;;;;;2.50;1.93;;;;;;;;;;5090490;28;20433;-74
2021/04/16 09:56:31;;;;;;;3.23;2.93;;;;;;;;;;5090233;28;20445;-73
2021/04/16 09:58:58;;;;;;;2.30;1.83;;;;;;;;;;5090267;28;20562;-74
2021/04/16 10:01:28;;;;;;;2.37;1.57;;;;;;;;;;5090257;28;20813;-75
2021/04/16 10:04:06;;;;;;;3.30;1.70;;;;;;;;;;5088705;28;20438;-74
2021/04/16 10:06:43;;;;;;;2.30;1.40;;;;;;;;;;5089742;28;20953;-75
2021/04/16 10:09:18;;;;;;;2.60;1.50;;;;;;;;;;5090420;28;20429;-75
2021/04/16 10:12:01;;;;;;;2.10;1.60;;;;;;;;;;5090275;28;20474;-75
2021/04/16 10:14:34;;;;;;;2.00;1.43;;;;;;;;;;5090225;28;20404;-75
2021/04/16 10:17:05;;;;;;;1.90;1.30;;;;;;;;;;5104377;28;20477;-75
2021/04/16 10:19:40;;;;;;;2.77;1.60;;;;;;;;;;5090376;28;20414;-75
2021/04/16 10:22:25;;;;;;;3.93;1.90;;;;;;;;;;5093171;28;20428;-75
2021/04/16 10:46:48;;;;;;;2.20;1.60;;;;;;;;;;5089230;28;20825;-74
2021/04/16 10:55:19;;;;;;;2.00;1.50;;;;;;;;;;5089444;28;20428;-74
2021/04/16 11:01:07;;;;;;;2.83;1.50;;;;;;;;;;5095820;28;20433;-75
2021/04/16 12:40:19;;;;;;;4.80;2.67;;;;;;;;;;5102357;28;20432;-82
2021/04/16 12:42:46;;;;;;;4.53;4.10;;;;;;;;;;5112666;27;20489;-80
2021/04/16 12:45:13;;;;;;;2.10;1.43;;;;;;;;;;5091853;28;20452;-80
2021/04/16 12:47:39;;;;;;;2.67;1.90;;;;;;;;;;5097074;28;20506;-80
2021/04/16 12:50:07;;;;;;;2.83;1.87;;;;;;;;;;5091993;28;20465;-80
2021/04/16 12:52:34;;;;;;;2.50;1.73;;;;;;;;;;5091480;28;20449;-78
2021/04/16 12:55:00;;;;;;;3.23;1.70;;;;;;;;;;5091736;28;20494;-78
2021/04/16 12:57:35;;;;;;;2.67;2.00;;;;;;;;;;5091744;28;20953;-79
2021/04/16 13:00:03;;;;;;;2.93;1.97;;;;;;;;;;5091781;28;20432;-80
2021/04/16 13:02:31;;;;;;;2.53;2.00;;;;;;;;;;5092159;28;20425;-81
2021/04/16 13:04:58;;;;;;;2.87;1.77;;;;;;;;;;5091397;28;21069;-78
2021/04/16 13:07:25;;;;;;;2.70;1.90;;;;;;;;;;5091826;28;20437;-78
2021/04/16 13:09:51;;;;;;;2.33;1.90;;;;;;;;;;5087201;28;20474;-78
2021/04/16 13:12:18;;;;;;;3.70;2.23;;;;;;;;;;5096752;28;20422;-81
2021/04/16 13:14:44;;;;;;;2.70;1.70;;;;;;;;;;5099202;28;20427;-79
2021/04/16 13:17:14;;;;;;;6.90;2.30;;;;;;;;;;5106727;28;20455;-82
2021/04/16 13:19:42;;;;;;;4.20;1.80;;;;;;;;;;5103801;28;20410;-77
2021/04/16 13:22:15;;;;;;;2.43;1.87;;;;;;;;;;5091228;28;20422;-79
2021/04/16 13:24:45;;;;;;;3.33;2.17;;;;;;;;;;5089911;28;20429;-79
2021/04/16 13:27:12;;;;;;;2.40;2.07;;;;;;;;;;5091625;28;20522;-80
2021/04/16 13:29:38;;;;;;;2.40;1.93;;;;;;;;;;5091305;28;20421;-81
2021/04/16 13:32:06;;;;;;;3.37;2.03;;;;;;;;;;5095409;28;21000;-79
2021/04/16 13:34:32;;;;;;;4.20;2.00;;;;;;;;;;5095186;28;20445;-79
2021/04/16 13:36:59;;;;;;;3.23;1.80;;;;;;;;;;5098626;28;20838;-80
2021/04/16 13:39:24;;;;;;;2.80;2.00;;;;;;;;;;5091535;28;20460;-76
2021/04/16 13:41:50;;;;;;;2.93;1.97;;;;;;;;;;5103822;28;20488;-77
2021/04/16 13:44:17;;;;;;;2.73;2.03;;;;;;;;;;5091517;28;20500;-81
2021/04/16 13:46:43;;;;;;;2.90;2.17;;;;;;;;;;5091783;28;21009;-82
2021/04/16 13:49:15;;;;;;;2.50;1.60;;;;;;;;;;5091580;28;20928;-77
2021/04/16 13:51:41;;;;;;;4.27;1.90;;;;;;;;;;5084598;28;20504;-79
2021/04/16 13:54:07;;;;;;;2.30;1.90;;;;;;;;;;5090995;28;20467;-80
2021/04/16 13:56:34;;;;;;;2.70;2.33;;;;;;;;;;5090422;28;20444;-82
2021/04/16 13:59:00;;;;;;;3.50;1.80;;;;;;;;;;5104840;28;20473;-81
2021/04/16 14:01:27;;;;;;;3.80;3.20;;;;;;;;;;5091750;28;20482;-79
2021/04/16 14:03:56;;;;;;;4.23;1.97;;;;;;;;;;5090860;28;20547;-76
2021/04/16 14:06:27;;;;;;;3.10;2.10;;;;;;;;;;5087402;28;20857;-77
2021/04/16 14:08:53;;;;;;;3.70;2.13;;;;;;;;;;5099038;28;20423;-82
2021/04/16 14:11:19;;;;;;;4.13;1.77;;;;;;;;;;5086557;28;20579;-79
2021/04/16 14:13:45;;;;;;;2.40;1.87;;;;;;;;;;5090516;28;20425;-79
2021/04/16 14:16:20;;;;;;;4.17;1.60;;;;;;;;;;5077984;28;20445;-80
2021/04/16 14:18:48;;;;;;;2.73;1.80;;;;;;;;;;5088082;28;20427;-77
2021/04/16 14:21:15;;;;;;;2.80;1.60;;;;;;;;;;5110017;28;20581;-78
2021/04/16 14:23:42;;;;;;;5.90;1.60;;;;;;;;;;5091586;28;20884;-78
2021/04/16 14:26:09;;;;;;;6.10;1.60;;;;;;;;;;5093655;28;20573;-76
2021/04/16 14:28:35;;;;;;;2.60;1.57;;;;;;;;;;5092842;28;20422;-80
2021/04/16 14:31:01;;;;;;;2.67;1.80;;;;;;;;;;5095547;28;21182;-77
2021/04/16 14:33:28;;;;;;;3.57;1.80;;;;;;;;;;5090698;28;20434;-78
2021/04/16 14:35:54;;;;;;;2.23;1.73;;;;;;;;;;5093696;28;20426;-78
2021/04/16 14:38:21;;;;;;;3.17;1.90;;;;;;;;;;5097782;28;20794;-85
2021/04/16 14:40:47;;;;;;;3.20;1.87;;;;;;;;;;5100115;28;20486;-80
2021/04/16 14:43:13;;;;;;;3.60;1.67;;;;;;;;;;5089750;28;20421;-78
2021/04/16 14:45:42;;;;;;;2.80;1.60;;;;;;;;;;5090537;28;20449;-78
2021/04/16 14:48:09;;;;;;;3.60;1.90;;;;;;;;;;5090582;28;20462;-80
2021/04/16 14:50:35;;;;;;;2.60;1.83;;;;;;;;;;5105100;28;20476;-77
2021/04/16 14:53:02;;;;;;;2.43;1.77;;;;;;;;;;5094213;28;20426;-80
2021/04/16 14:55:30;;;;;;;2.80;1.93;;;;;;;;;;5092386;28;20423;-81
2021/04/16 14:57:57;;;;;;;4.67;2.83;;;;;;;;;;5096119;28;20782;-81
2021/04/16 15:00:24;;;;;;;2.10;1.80;;;;;;;;;;5090881;28;20429;-76
2021/04/16 15:02:52;;;;;;;2.30;1.70;;;;;;;;;;5091330;28;20466;-81
2021/04/16 15:05:18;;;;;;;3.40;1.80;;;;;;;;;;5094763;28;20868;-77
2021/04/16 15:08:05;;;;;;;4.00;1.83;;;;;;;;;;5094259;28;20852;-80
2021/04/16 15:10:33;;;;;;;3.90;2.20;;;;;;;;;;5086337;28;20473;-81
2021/04/16 15:12:59;;;;;;;2.60;1.97;;;;;;;;;;5090771;28;20422;-78
2021/04/16 15:15:51;;;;;;;2.87;2.07;;;;;;;;;;5106143;28;20534;-77
2021/04/16 15:18:17;;;;;;;2.77;1.43;;;;;;;;;;5093279;28;21063;-80
2021/04/16 15:20:45;;;;;;;3.60;1.80;;;;;;;;;;5092935;28;20417;-78
2021/04/16 15:23:12;;;;;;;2.30;1.60;;;;;;;;;;5094114;28;20505;-80
2021/04/16 15:25:38;;;;;;;2.47;1.40;;;;;;;;;;5096364;28;20420;-81
2021/04/16 15:28:06;;;;;;;3.80;1.83;;;;;;;;;;5094270;28;20841;-80
2021/04/16 15:30:34;;;;;;;4.30;1.90;;;;;;;;;;5092842;28;20461;-81
2021/04/16 15:33:01;;;;;;;2.37;1.50;;;;;;;;;;5096009;28;20443;-81
2021/04/16 15:46:47;;;;;;;3.53;1.70;;;;;;;;;;5089308;28;20451;-79
2021/04/16 15:49:13;;;;;;;11.48;8.02;;;;;;;;;;5104891;28;20291;-79
2021/04/16 15:51:40;;;;;;;3.38;1.90;;;;;;;;;;5099489;28;20213;-78
2021/04/16 15:54:06;;;;;;;2.60;1.50;;;;;;;;;;5093367;28;20551;-79
2021/04/16 15:56:37;;;;;;;5.15;1.95;;;;;;;;;;5097527;28;20199;-77
2021/04/16 15:59:17;;;;;;;2.95;1.50;;;;;;;;;;5098606;28;20168;-79
2021/04/16 16:01:43;;;;;;;4.40;1.83;;;;;;;;;;5112514;28;20190;-78
2021/04/16 16:04:11;;;;;;;3.90;2.03;;;;;;;;;;5098839;28;20210;-77
2021/04/16 16:06:38;;;;;;;3.75;2.00;;;;;;;;;;5109662;28;20206;-78
2021/04/16 16:09:04;;;;;;;3.10;1.98;;;;;;;;;;5105212;28;20335;-74
2021/04/16 16:11:35;;;;;;;3.47;1.90;;;;;;;;;;5098738;28;20320;-80
2021/04/16 16:14:05;;;;;;;7.50;5.22;;;;;;;;;;5099518;28;20626;-79
2021/04/16 16:16:32;;;;;;;2.70;1.63;;;;;;;;;;5096432;28;20199;-80
2021/04/16 16:18:58;;;;;;;3.05;2.75;;;;;;;;;;5094950;28;20684;-81
2021/04/16 16:21:24;;;;;;;3.35;1.75;;;;;;;;;;5098953;28;20270;-78
2021/04/16 16:23:51;;;;;;;3.33;2.63;;;;;;;;;;5099982;27;20183;-78
2021/04/16 16:26:22;;;;;;;3.95;2.10;;;;;;;;;;5095076;28;20223;-79
2021/04/16 16:28:52;;;;;;;3.75;2.47;;;;;;;;;;5093835;28;20612;-76
2021/04/16 16:31:18;;;;;;;2.75;2.10;;;;;;;;;;5095963;28;20207;-81
2021/04/16 16:33:43;;;;;;;4.50;4.03;;;;;;;;;;5113057;28;20186;-77
2021/04/16 16:36:09;;;;;;;5.53;1.80;;;;;;;;;;5099235;28;20504;-77
2021/04/16 16:38:36;;;;;;;3.03;2.00;;;;;;;;;;5092382;28;20516;-80
2021/04/16 16:41:02;;;;;;;2.42;1.80;;;;;;;;;;5098363;28;20417;-81
2021/04/16 16:43:27;;;;;;;5.75;2.55;;;;;;;;;;5091304;28;20194;-80
2021/04/16 16:45:56;;;;;;;3.13;2.10;;;;;;;;;;5090965;28;20249;-78
2021/04/16 16:48:22;;;;;;;3.13;1.92;;;;;;;;;;5092327;28;20432;-80
2021/04/16 16:50:49;;;;;;;3.47;1.92;;;;;;;;;;5094562;28;20206;-75
2021/04/16 16:53:16;;;;;;;3.35;2.15;;;;;;;;;;5091997;28;20220;-79
2021/04/16 16:55:43;;;;;;;3.63;2.45;;;;;;;;;;5090450;28;20179;-76
2021/04/16 16:58:11;;;;;;;4.45;3.83;;;;;;;;;;5091594;28;20223;-80
2021/04/16 17:00:41;;;;;;;2.63;2.15;;;;;;;;;;5092605;28;20241;-79
2021/04/16 17:03:07;;;;;;;2.80;2.10;;;;;;;;;;5091410;28;20190;-77
2021/04/16 17:05:33;;;;;;;3.20;1.93;;;;;;;;;;5105432;28;20199;-77
2021/04/16 17:07:59;;;;;;;3.10;2.10;;;;;;;;;;5102372;28;20444;-80
2021/04/16 17:10:26;;;;;;;3.05;2.53;;;;;;;;;;5093400;28;20537;-77